This is the latest recevied weather packets stored in our database for station/object FREPRT-WX. If no packets are shown the sender has not sent any weather packets the latest 1 day(s).
| Time | Temp. | Humidity | Pressure | Rain* | Wind** | Luminosity | Snow |
|---|---|---|---|---|---|---|---|
| 1778002256 | 12.78° C | 35% | 978.2 hPa | 0 mm | 6.26 m/s, 274° | - | - |
| 1778001340 | 12.22° C | 35% | 978.2 hPa | 0 mm | 5.81 m/s, 274° | - | - |
| 1778000470 | 12.22° C | 35% | 978.2 hPa | 0 mm | 5.81 m/s, 278° | - | - |
| 1777999540 | 11.67° C | 41% | 978.7 hPa | 0 mm | 6.26 m/s, 283° | - | - |
| 1777998659 | 11.67° C | 41% | 977.3 hPa | 0 mm | 6.26 m/s, 274° | - | - |
| 1777997740 | 11.67° C | 41% | 977.3 hPa | 0 mm | 5.36 m/s, 266° | - | - |
| 1777996873 | 11.67° C | 41% | 977.3 hPa | 0 mm | 5.36 m/s, 271° | - | - |
| 1777995938 | 10.56° C | 52% | 978.9 hPa | 0 mm | 5.36 m/s, 269° | - | - |
| 1777995062 | 11.11° C | 46% | 977.9 hPa | 0 mm | 6.26 m/s, 276° | - | - |
| 1777994140 | 11.11° C | 46% | 977.9 hPa | 0 mm | 6.26 m/s, 276° | - | - |
| 1777993279 | 11.11° C | 46% | 977.9 hPa | 0 mm | 6.26 m/s, 276° | - | - |
| 1777992340 | 10.56° C | 66% | 977.9 hPa | 0 mm | 5.36 m/s, 276° | - | - |
| 1777991459 | 11.11° C | 54% | 977.9 hPa | 0 mm | 5.36 m/s, 268° | - | - |
| 1777990540 | 11.11° C | 54% | 977.9 hPa | 0 mm | 4.92 m/s, 268° | - | - |
| 1777989679 | 10.56° C | 54% | 977.9 hPa | 0 mm | 4.47 m/s, 269° | - | - |
| 1777988740 | 10.56° C | 63% | 977.7 hPa | 0 mm | 4.92 m/s, 278° | - | - |
| 1777987860 | 10.56° C | 63% | 977.7 hPa | 0 mm | 5.81 m/s, 286° | - | - |
| 1777986940 | 10.56° C | 63% | 977.6 hPa | 0 mm | 5.36 m/s, 287° | - | - |
| 1777986072 | 11.11° C | 63% | 977.7 hPa | 0 mm | 4.47 m/s, 304° | - | - |
| 1777985139 | 10.56° C | 70% | 976.9 hPa | 0 mm | 3.58 m/s, 312° | - | - |
| 1777984259 | 10.56° C | 69% | 975.4 hPa | 0 mm | 4.02 m/s, 307° | - | - |
| 1777983340 | 10.56° C | 69% | 975.4 hPa | 0 mm | 4.02 m/s, 302° | - | - |
| 1777982483 | 10° C | 69% | 975.4 hPa | 0 mm | 4.47 m/s, 288° | - | - |
| 1777981540 | 10° C | 68% | 975.3 hPa | 0 mm | 4.02 m/s, 281° | - | - |
| 1777980657 | 10° C | 66% | 973.8 hPa | 0 mm | 4.02 m/s, 286° | - | - |
* Rain latest hour (hover to see other rain measurements)
** Current wind speed in m/s (hover to see current wind gust speed)